Ryoshin Maru — JD2464 — position and weather

sailwx.info

Track history (hours):
 
Tides and Currents Weather Stations Pressure Air Temp Water Temp Dewpoint Dewpoint Depression Visibility Wind Speed Wind Dir Waves Ship Positions

Ryoshin Maru

Last reported at 2017-Nov-18 22:40 UTC. Time now 2017-Nov-22 01:48 UTC.
Position N 34°41' E 134°49'.

Length 60 m; draft 3.8 m.

Type: Tanker. MMSI: 431000263.

Date/timePositionNaut miles runAvg speedWind from/ knotsBaromVisibWave heightAir tempDewpointWater temp
2017-Nov-18 22:40N 34°41' E 134°49'210.1
2017-Nov-18 22:30N 34°41' E 134°48'8 6.5
2017-Nov-18 21:18N 34°37' E 134°56'411.3
2017-Nov-18 20:56N 34°37' E 135°01'510.6
2017-Nov-18 20:30N 34°35' E 135°05'611.6
2017-Nov-18 20:00N 34°29' E 135°04'611.4
2017-Nov-18 19:27N 34°23' E 135°02'811.8
2017-Nov-18 18:46N 34°15' E 134°60'310.3
2017-Nov-18 18:30N 34°12' E 134°60'611.6
2017-Nov-18 18:00N 34°07' E 135°01'  
2017-Nov-13 01:01N 34°41' E 134°49'1 7.1
2017-Nov-13 00:54N 34°40' E 134°49'1 2.2
2017-Nov-13 00:20N 34°41' E 134°48'  
2017-Nov-10 20:14N 34°37' E 134°58'310.8
2017-Nov-10 20:00N 34°37' E 135°01'510.2
2017-Nov-10 19:30N 34°33' E 135°05'713.0
2017-Nov-10 19:00N 34°27' E 135°03'1212.7
2017-Nov-10 18:04N 34°15' E 134°59'112.2
2017-Nov-10 18:00N 34°15' E 134°59'612.5
2017-Nov-10 17:31N 34°08' E 135°00'  
Track history (hours):
 
Tides and Currents Weather Stations Pressure Air Temp Water Temp Dewpoint Dewpoint Depression Visibility Wind Speed Wind Dir Waves Ship Positions

Ryoshin Maru

Last reported at 2017-Nov-18 22:40 UTC. Time now 2017-Nov-22 01:48 UTC.
Position N 34°41' E 134°49'.

Length 60 m; draft 3.8 m.

Type: Tanker. MMSI: 431000263.

Date/timePositionNaut miles runAvg speedWind from/ knotsBaromVisibWave heightAir tempDewpointWater temp
2017-Nov-18 22:40N 34°41' E 134°49'210.1
2017-Nov-18 22:30N 34°41' E 134°48'8 6.5
2017-Nov-18 21:18N 34°37' E 134°56'411.3
2017-Nov-18 20:56N 34°37' E 135°01'510.6
2017-Nov-18 20:30N 34°35' E 135°05'611.6
2017-Nov-18 20:00N 34°29' E 135°04'611.4
2017-Nov-18 19:27N 34°23' E 135°02'811.8
2017-Nov-18 18:46N 34°15' E 134°60'310.3
2017-Nov-18 18:30N 34°12' E 134°60'611.6
2017-Nov-18 18:00N 34°07' E 135°01'  
2017-Nov-13 01:01N 34°41' E 134°49'1 7.1
2017-Nov-13 00:54N 34°40' E 134°49'1 2.2
2017-Nov-13 00:20N 34°41' E 134°48'  
2017-Nov-10 20:14N 34°37' E 134°58'310.8
2017-Nov-10 20:00N 34°37' E 135°01'510.2
2017-Nov-10 19:30N 34°33' E 135°05'713.0
2017-Nov-10 19:00N 34°27' E 135°03'1212.7
2017-Nov-10 18:04N 34°15' E 134°59'112.2
2017-Nov-10 18:00N 34°15' E 134°59'612.5
2017-Nov-10 17:31N 34°08' E 135°00'  

Dump ship's entire track history